Time;durP1;ratioP1;P1;durP2;ratioP2;P2;SDS_P1;SDS_P2;PMS_P1;PMS_P2;Temp;Humidity;BMP_temperature;BMP_pressure;BME280_temperature;BME280_humidity;BME280_pressure;Samples;Min_cycle;Max_cycle;Signal;HPM_P1;HPM_P2
2023/12/05 00:00:46;;;;;;;;;;;;;;;2.07;100.00;99884.34;5115233;28;19916;-40
2023/12/05 00:03:11;;;;;;;;;;;;;;;2.02;100.00;99886.63;5112446;28;19979;-40
2023/12/05 00:05:37;;;;;;;;;;;;;;;2.04;100.00;99874.06;5114713;28;19920;-40
2023/12/05 00:08:02;;;;;;;;;;;;;;;2.07;100.00;99868.44;5114195;28;19927;-40
2023/12/05 00:10:27;;;;;;;;;;;;;;;2.07;100.00;99879.06;5114229;28;19924;-41
2023/12/05 00:12:52;;;;;;;;;;;;;;;2.07;100.00;99876.41;5115084;28;19924;-41
2023/12/05 00:15:18;;;;;;;;;;;;;;;2.09;100.00;99874.44;5114920;28;19931;-40
2023/12/05 00:17:43;;;;;;;;;;;;;;;2.11;100.00;99881.25;5113915;28;19973;-40
2023/12/05 00:20:09;;;;;;;;;;;;;;;2.10;100.00;99876.91;5112822;28;19920;-39
2023/12/05 00:22:35;;;;;;;;;;;;;;;2.11;100.00;99875.13;5113778;28;20399;-41
2023/12/05 00:25:01;;;;;;;;;;;;;;;2.13;100.00;99875.78;5114267;28;19998;-40
2023/12/05 00:27:26;;;;;;;;;;;;;;;2.13;100.00;99881.09;5113050;28;20024;-40
2023/12/05 00:29:51;;;;;;;;;;;;;;;2.14;100.00;99874.81;5112446;28;19923;-41
2023/12/05 00:32:16;;;;;;;;;;;;;;;2.14;100.00;99874.81;5111899;28;19923;-40
2023/12/05 00:34:47;;;;;;;;;;;;;;;2.13;100.00;99883.75;5112065;28;19924;-39
2023/12/05 00:37:13;;;;;;;;;;;;;;;2.15;100.00;99881.78;5112337;28;19920;-40
2023/12/05 00:39:38;;;;;;;;;;;;;;;2.12;100.00;99876.78;5112167;28;20015;-39
2023/12/05 00:42:03;;;;;;;;;;;;;;;2.14;100.00;99874.81;5112103;28;20319;-39
2023/12/05 00:44:28;;;;;;;;;;;;;;;2.12;100.00;99876.78;5112154;28;19930;-40
2023/12/05 00:46:54;;;;;;;;;;;;;;;2.10;100.00;99878.75;5113034;28;19919;-39
2023/12/05 00:49:19;;;;;;;;;;;;;;;2.07;100.00;99871.09;5112123;28;19959;-39
2023/12/05 00:51:44;;;;;;;;;;;;;;;2.04;100.00;99868.75;5111601;28;19920;-39
2023/12/05 00:54:09;;;;;;;;;;;;;;;2.01;100.00;99871.69;5111444;28;19920;-39
2023/12/05 00:56:34;;;;;;;;;;;;;;;2.07;100.00;99868.44;5111887;28;19932;-39
2023/12/05 00:59:00;;;;;;;;;;;;;;;2.07;100.00;99871.91;5111689;28;19923;-41
2023/12/05 01:01:25;;;;;;;;;;;;;;;2.07;100.00;99868.44;5110348;28;19927;-41
2023/12/05 01:03:51;;;;;;;;;;;;;;;2.06;100.00;99872.91;5111174;28;20047;-40
2023/12/05 01:06:17;;;;;;;;;;;;;;;2.07;100.00;99863.13;5111127;28;19962;-40
2023/12/05 01:08:42;;;;;;;;;;;;;;;2.04;100.00;99858.13;5111566;28;20367;-41
2023/12/05 01:11:09;;;;;;;;;;;;;;;2.02;100.00;99862.75;5110958;28;20503;-41
2023/12/05 01:13:34;;;;;;;;;;;;;;;2.02;100.00;99870.69;5110724;28;19919;-41
2023/12/05 01:16:00;;;;;;;;;;;;;;;2.02;100.00;99873.34;5110834;28;19915;-40
2023/12/05 01:18:27;;;;;;;;;;;;;;;2.02;100.00;99873.34;5111302;28;20301;-41
2023/12/05 01:20:52;;;;;;;;;;;;;;;2.03;100.00;99886.50;5108917;28;19994;-40
2023/12/05 01:23:17;;;;;;;;;;;;;;;2.02;100.00;99874.19;5110731;28;20010;-41
2023/12/05 01:25:43;;;;;;;;;;;;;;;2.07;100.00;99879.88;5113475;28;19916;-41
2023/12/05 01:28:08;;;;;;;;;;;;;;;2.05;100.00;99883.66;5114653;28;20066;-41
2023/12/05 01:30:33;;;;;;;;;;;;;;;2.09;100.00;99887.69;5112578;28;19979;-42
2023/12/05 01:32:59;;;;;;;;;;;;;;;2.07;100.00;99874.56;5111285;28;20034;-41
2023/12/05 01:35:24;;;;;;;;;;;;;;;2.06;100.00;99877.41;5109804;28;19967;-41
2023/12/05 01:37:49;;;;;;;;;;;;;;;2.05;100.00;99883.66;5111047;28;19916;-40
2023/12/05 01:40:14;;;;;;;;;;;;;;;2.03;100.00;99877.66;5110784;28;19923;-40
2023/12/05 01:42:39;;;;;;;;;;;;;;;2.02;100.00;99876.00;5110961;28;19920;-40
2023/12/05 01:45:05;;;;;;;;;;;;;;;2.05;100.00;99871.22;5109425;28;19924;-39
2023/12/05 01:47:30;;;;;;;;;;;;;;;2.06;100.00;99880.03;5111093;28;19923;-39
2023/12/05 01:49:55;;;;;;;;;;;;;;;2.04;100.00;99877.53;5109387;28;19927;-37
2023/12/05 01:52:21;;;;;;;;;;;;;;;2.02;100.00;99876.00;5110289;28;19923;-39
2023/12/05 01:54:46;;;;;;;;;;;;;;;2.03;100.00;99873.22;5109846;28;20049;-38
2023/12/05 01:57:11;;;;;;;;;;;;;;;2.04;100.00;99879.34;5111110;28;19926;-40
2023/12/05 01:59:36;;;;;;;;;;;;;;;2.04;100.00;99887.31;5110915;28;19920;-39
2023/12/05 02:02:02;;;;;;;;;;;;;;;2.04;100.00;99889.97;5109299;28;19938;-40
2023/12/05 02:04:27;;;;;;;;;;;;;;;2.04;100.00;99882.00;5109996;28;19920;-39
2023/12/05 02:06:53;;;;;;;;;;;;;;;2.03;100.00;99890.94;5093249;28;19920;-40
2023/12/05 02:09:19;;;;;;;;;;;;;;;2.04;100.00;99895.28;5111418;28;20237;-39
2023/12/05 02:11:44;;;;;;;;;;;;;;;2.05;100.00;99891.63;5111779;28;20255;-40
2023/12/05 02:14:09;;;;;;;;;;;;;;;2.03;100.00;99890.94;5110871;28;19927;-39
2023/12/05 02:16:35;;;;;;;;;;;;;;;2.03;100.00;99890.94;5111194;28;19923;-40
2023/12/05 02:19:18;;;;;;;;;;;;;;;2.01;100.00;99892.94;5109300;28;20360;-39
2023/12/05 02:21:43;;;;;;;;;;;;;;;2.02;100.00;99892.75;5111293;28;19924;-40
2023/12/05 02:24:35;;;;;;;;;;;;;;;2.07;100.00;99892.31;5111559;28;19919;-40
2023/12/05 02:27:02;;;;;;;;;;;;;;;2.06;100.00;99888.00;5112129;28;19919;-40
2023/12/05 02:29:28;;;;;;;;;;;;;;;2.07;100.00;99892.31;5112845;28;19924;-40
2023/12/05 02:31:54;;;;;;;;;;;;;;;2.05;100.00;99891.63;5114544;28;19924;-38
2023/12/05 02:34:19;;;;;;;;;;;;;;;2.04;100.00;99895.28;5114023;28;20510;-41
2023/12/05 02:37:01;;;;;;;;;;;;;;;2.03;100.00;99896.25;5114172;28;19935;-41
2023/12/05 02:39:27;;;;;;;;;;;;;;;2.02;100.00;99891.94;5112830;28;20343;-40
2023/12/05 02:41:52;;;;;;;;;;;;;;;2.02;100.00;99894.59;5114163;28;19924;-41
2023/12/05 02:44:18;;;;;;;;;;;;;;;2.01;100.00;99891.09;5112051;28;19923;-38
2023/12/05 02:46:43;;;;;;;;;;;;;;;2.01;100.00;99900.88;5113651;28;19935;-38
2023/12/05 02:49:09;;;;;;;;;;;;;;;2.01;100.00;99890.28;5113860;28;19923;-41
2023/12/05 02:51:34;;;;;;;;;;;;;;;2.01;100.00;99896.41;5118699;28;19923;-40
2023/12/05 02:54:06;;;;;;;;;;;;;;;2.02;100.00;99897.25;5116819;28;19928;-40
2023/12/05 02:56:31;;;;;;;;;;;;;;;1.97;100.00;99901.19;5115085;28;19923;-39
2023/12/05 02:58:57;;;;;;;;;;;;;;;1.96;100.00;99898.69;5114227;28;20052;-39
2023/12/05 03:01:22;;;;;;;;;;;;;;;1.94;100.00;99896.16;5114906;28;19972;-40
2023/12/05 03:03:47;;;;;;;;;;;;;;;1.93;100.00;99899.81;5113647;28;19924;-39
2023/12/05 03:06:12;;;;;;;;;;;;;;;1.94;100.00;99893.50;5114280;28;20093;-40
2023/12/05 03:08:37;;;;;;;;;;;;;;;1.96;100.00;99904.81;5114832;28;20064;-40
2023/12/05 03:11:03;;;;;;;;;;;;;;;1.93;100.00;99899.81;5114838;28;19975;-38
2023/12/05 03:13:28;;;;;;;;;;;;;;;1.94;100.00;99895.34;5114421;28;19919;-39
2023/12/05 03:15:53;;;;;;;;;;;;;;;1.95;100.00;99897.84;5114786;28;19924;-40
2023/12/05 03:18:18;;;;;;;;;;;;;;;1.96;100.00;99899.50;5114220;28;19924;-40
2023/12/05 03:20:44;;;;;;;;;;;;;;;1.95;100.00;99897.84;5112278;28;19923;-39
2023/12/05 03:23:09;;;;;;;;;;;;;;;1.95;100.00;99889.88;5114475;28;19950;-40
2023/12/05 03:25:34;;;;;;;;;;;;;;;1.92;100.00;99892.84;5116098;28;19920;-40
2023/12/05 03:27:59;;;;;;;;;;;;;;;1.92;100.00;99890.19;5116732;28;20270;-38
2023/12/05 03:30:24;;;;;;;;;;;;;;;1.92;100.00;99892.00;5116734;28;20298;-39
2023/12/05 03:32:50;;;;;;;;;;;;;;;1.90;100.00;99894.81;5117283;28;20286;-39
2023/12/05 03:35:15;;;;;;;;;;;;;;;1.88;100.00;99899.44;5118597;28;19927;-40
2023/12/05 03:37:40;;;;;;;;;;;;;;;1.90;100.00;99905.41;5118985;28;19955;-39
2023/12/05 03:40:06;;;;;;;;;;;;;;;1.92;100.00;99898.16;5116956;28;19915;-38
2023/12/05 03:42:31;;;;;;;;;;;;;;;1.91;100.00;99899.13;5118494;28;19924;-40
2023/12/05 03:44:56;;;;;;;;;;;;;;;1.93;100.00;99899.81;5115994;28;19923;-39
2023/12/05 03:47:21;;;;;;;;;;;;;;;1.94;100.00;99904.13;5113336;28;19926;-37
2023/12/05 03:49:47;;;;;;;;;;;;;;;1.96;100.00;99902.16;5113106;28;20018;-39
2023/12/05 03:52:12;;;;;;;;;;;;;;;1.97;100.00;99909.16;5112726;28;20014;-39
2023/12/05 03:54:38;;;;;;;;;;;;;;;1.97;100.00;99917.13;5112873;28;19928;-40
2023/12/05 03:57:03;;;;;;;;;;;;;;;1.94;100.00;99906.78;5112887;28;20173;-38
2023/12/05 03:59:28;;;;;;;;;;;;;;;2.01;100.00;99916.81;5112920;28;19932;-39
2023/12/05 04:01:53;;;;;;;;;;;;;;;1.97;100.00;99909.16;5113754;28;19923;-40
2023/12/05 04:04:19;;;;;;;;;;;;;;;1.93;100.00;99913.06;5113777;28;19927;-39
2023/12/05 04:06:44;;;;;;;;;;;;;;;1.93;100.00;99926.34;5113989;28;19924;-40
2023/12/05 04:09:09;;;;;;;;;;;;;;;1.98;100.00;99917.94;5112580;28;19926;-39
2023/12/05 04:11:34;;;;;;;;;;;;;;;1.96;100.00;99925.22;5113145;28;19920;-39
2023/12/05 04:14:00;;;;;;;;;;;;;;;1.92;100.00;99929.13;5113096;28;19934;-40
2023/12/05 04:16:25;;;;;;;;;;;;;;;1.89;100.00;99930.28;5112416;28;19919;-39
2023/12/05 04:18:51;;;;;;;;;;;;;;;1.89;100.00;99930.28;5112730;28;19923;-40
2023/12/05 04:21:19;;;;;;;;;;;;;;;1.90;100.00;99936.44;5108677;28;20002;-40
2023/12/05 04:23:45;;;;;;;;;;;;;;;1.88;100.00;99928.59;5113287;28;20007;-40
2023/12/05 04:26:16;;;;;;;;;;;;;;;1.90;100.00;99937.25;5113623;28;19955;-40
2023/12/05 04:28:42;;;;;;;;;;;;;;;1.95;100.00;99944.78;5113380;28;19931;-40
2023/12/05 04:31:07;;;;;;;;;;;;;;;1.92;100.00;99951.22;5111834;28;20328;-40
2023/12/05 04:33:32;;;;;;;;;;;;;;;1.94;100.00;99941.28;5112886;28;20270;-40
2023/12/05 04:35:57;;;;;;;;;;;;;;;1.93;100.00;99947.56;5111882;28;19969;-40
2023/12/05 04:38:23;;;;;;;;;;;;;;;1.88;100.00;99949.84;5113232;28;20300;-39
2023/12/05 04:40:48;;;;;;;;;;;;;;;1.92;100.00;99942.41;5114019;28;19988;-40
2023/12/05 04:43:13;;;;;;;;;;;;;;;1.90;100.00;99945.22;5114344;28;19923;-39
2023/12/05 04:45:40;;;;;;;;;;;;;;;1.91;100.00;99954.84;5115835;28;20010;-40
2023/12/05 04:48:05;;;;;;;;;;;;;;;1.89;100.00;99956.81;5113091;28;20285;-40
2023/12/05 04:50:30;;;;;;;;;;;;;;;1.82;100.00;99947.78;5111564;28;19931;-40
2023/12/05 04:52:55;;;;;;;;;;;;;;;1.84;100.00;99958.22;5113861;28;19919;-41
2023/12/05 04:55:20;;;;;;;;;;;;;;;1.83;100.00;99957.41;5115807;28;19923;-41
2023/12/05 04:57:46;;;;;;;;;;;;;;;1.82;100.00;99949.56;5115735;28;19928;-40
2023/12/05 05:00:13;;;;;;;;;;;;;;;1.86;100.00;99953.63;5117146;28;19963;-39
2023/12/05 05:02:38;;;;;;;;;;;;;;;1.84;100.00;99959.06;5115002;28;19919;-39
2023/12/05 05:05:03;;;;;;;;;;;;;;;1.83;100.00;99965.34;5114561;28;20267;-38
2023/12/05 05:07:28;;;;;;;;;;;;;;;1.88;100.00;99970.22;5110533;28;19924;-39
2023/12/05 05:09:54;;;;;;;;;;;;;;;1.87;100.00;99971.19;5112521;28;19961;-40
2023/12/05 05:12:19;;;;;;;;;;;;;;;1.87;100.00;99966.75;5111190;28;19988;-39
2023/12/05 05:14:44;;;;;;;;;;;;;;;1.87;100.00;99972.06;5110873;28;19927;-39
2023/12/05 05:17:09;;;;;;;;;;;;;;;1.90;100.00;99970.94;5110600;28;19956;-39
2023/12/05 05:19:34;;;;;;;;;;;;;;;1.88;100.00;99978.19;5109539;28;19923;-39
2023/12/05 05:22:00;;;;;;;;;;;;;;;1.92;100.00;99976.91;5110787;28;19923;-39
2023/12/05 05:24:25;;;;;;;;;;;;;;;1.96;100.00;99984.44;5110993;28;19931;-40
2023/12/05 05:26:50;;;;;;;;;;;;;;;1.97;100.00;99986.13;5111067;28;19920;-39
2023/12/05 05:29:15;;;;;;;;;;;;;;;1.99;100.00;99993.91;5110397;28;20403;-40
2023/12/05 05:31:40;;;;;;;;;;;;;;;2.02;100.00;99996.25;5112226;28;20386;-39
2023/12/05 05:34:06;;;;;;;;;;;;;;;1.97;100.00;99993.22;5114931;28;19924;-41
2023/12/05 05:36:31;;;;;;;;;;;;;;;1.98;100.00;99982.47;5110937;28;20033;-39
2023/12/05 05:38:56;;;;;;;;;;;;;;;2.05;100.00;99992.47;5111044;28;19999;-39
2023/12/05 05:41:21;;;;;;;;;;;;;;;2.05;100.00;99993.31;5111090;28;20009;-39
2023/12/05 05:43:47;;;;;;;;;;;;;;;2.02;100.00;99992.78;5111138;28;19966;-40
2023/12/05 05:46:12;;;;;;;;;;;;;;;2.04;100.00;99998.78;5111736;28;20008;-40
2023/12/05 05:48:37;;;;;;;;;;;;;;;2.02;100.00;100004.22;5110812;28;19920;-40
2023/12/05 05:51:02;;;;;;;;;;;;;;;2.03;100.00;100000.59;5105162;28;19934;-40
2023/12/05 05:53:27;;;;;;;;;;;;;;;2.03;100.00;100005.06;5113428;28;20025;-39
2023/12/05 05:55:53;;;;;;;;;;;;;;;2.03;100.00;99997.09;5115559;28;20284;-38
2023/12/05 05:58:18;;;;;;;;;;;;;;;2.03;100.00;100002.41;5116784;28;19966;-39
2023/12/05 06:00:44;;;;;;;;;;;;;;;2.05;100.00;100011.06;5116280;28;20007;-40
2023/12/05 06:03:09;;;;;;;;;;;;;;;2.02;100.00;100009.53;5120053;28;19920;-39
2023/12/05 06:05:34;;;;;;;;;;;;;;;2.02;100.00;100008.72;5118447;28;19920;-40
2023/12/05 06:08:00;;;;;;;;;;;;;;;2.05;100.00;100003.09;5119993;28;19979;-40
2023/12/05 06:10:27;;;;;;;;;;;;;;;2.07;100.00;100014.41;5119424;28;20291;-40
2023/12/05 06:12:52;;;;;;;;;;;;;;;2.11;100.00;100015.81;5118932;28;19927;-39
2023/12/05 06:15:17;;;;;;;;;;;;;;;2.09;100.00;100025.72;5119948;28;20300;-39
2023/12/05 06:17:42;;;;;;;;;;;;;;;2.06;100.00;100026.84;5120012;28;20273;-39
2023/12/05 06:20:08;;;;;;;;;;;;;;;2.06;100.00;100023.38;5119489;28;19976;-39
2023/12/05 06:22:33;;;;;;;;;;;;;;;2.08;100.00;100029.34;5115952;28;19920;-39
2023/12/05 06:24:59;;;;;;;;;;;;;;;2.10;100.00;100027.38;5122054;27;19920;-40
2023/12/05 06:27:24;;;;;;;;;;;;;;;2.09;100.00;100031.03;5117740;28;19920;-40
2023/12/05 06:29:49;;;;;;;;;;;;;;;2.05;100.00;100024.31;5121503;28;19923;-39
2023/12/05 06:32:15;;;;;;;;;;;;;;;2.04;100.00;100034.13;5116362;28;20323;-39
2023/12/05 06:34:40;;;;;;;;;;;;;;;2.04;100.00;100027.97;5116335;28;19927;-39
2023/12/05 06:37:05;;;;;;;;;;;;;;;2.02;100.00;100030.78;5116478;28;20918;-41
2023/12/05 06:39:30;;;;;;;;;;;;;;;2.04;100.00;100044.72;5116539;28;19926;-40
2023/12/05 06:41:56;;;;;;;;;;;;;;;2.04;100.00;100044.72;5115663;28;19923;-40
2023/12/05 06:44:21;;;;;;;;;;;;;;;2.05;100.00;100042.91;5119660;27;19982;-40
2023/12/05 06:46:46;;;;;;;;;;;;;;;2.07;100.00;100056.88;5111711;28;19968;-39
2023/12/05 06:49:11;;;;;;;;;;;;;;;2.09;100.00;100057.56;5115339;28;20361;-40
2023/12/05 06:51:37;;;;;;;;;;;;;;;2.11;100.00;100071.53;5116047;28;19929;-40
2023/12/05 06:54:03;;;;;;;;;;;;;;;2.10;100.00;100069.84;5116240;28;20002;-39
2023/12/05 06:56:28;;;;;;;;;;;;;;;2.11;100.00;100080.34;5115368;28;19993;-40
2023/12/05 06:58:54;;;;;;;;;;;;;;;2.13;100.00;100080.16;5115210;28;19926;-40
2023/12/05 07:01:19;;;;;;;;;;;;;;;2.13;100.00;100085.47;5115243;28;20384;-40
2023/12/05 07:03:44;;;;;;;;;;;;;;;2.11;100.00;100087.47;5115146;28;19924;-40
2023/12/05 07:06:09;;;;;;;;;;;;;;;2.11;100.00;100092.78;5116103;28;19936;-41
2023/12/05 07:08:35;;;;;;;;;;;;;;;2.12;100.00;100097.91;5115071;28;19928;-39
2023/12/05 07:11:01;;;;;;;;;;;;;;;2.13;100.00;100098.75;5113748;28;19923;-40
2023/12/05 07:13:26;;;;;;;;;;;;;;;2.11;100.00;100104.22;5115274;28;19916;-40
2023/12/05 07:15:51;;;;;;;;;;;;;;;2.13;100.00;100096.97;5115940;28;20239;-40
2023/12/05 07:18:16;;;;;;;;;;;;;;;2.08;100.00;100093.03;5115028;28;19927;-40
2023/12/05 07:20:42;;;;;;;;;;;;;;;2.06;100.00;100093.19;5115340;28;19919;-41
2023/12/05 07:23:07;;;;;;;;;;;;;;;2.06;100.00;100095.84;5110004;28;19934;-39
2023/12/05 07:25:32;;;;;;;;;;;;;;;2.03;100.00;100095.28;5104938;27;20302;-39
2023/12/05 07:27:57;;;;;;;;;;;;;;;2.02;100.00;100098.94;5117078;27;19920;-40
2023/12/05 07:30:23;;;;;;;;;;;;;;;2.02;100.00;100101.59;5114570;28;19926;-39
2023/12/05 07:32:48;;;;;;;;;;;;;;;2.05;100.00;100109.25;5120557;27;19929;-39
2023/12/05 07:35:13;;;;;;;;;;;;;;;2.06;100.00;100110.94;5117405;27;19973;-39
2023/12/05 07:37:38;;;;;;;;;;;;;;;2.10;100.00;100113.16;5111755;28;20011;-41
2023/12/05 07:40:06;;;;;;;;;;;;;;;2.10;100.00;100120.28;5114636;28;19926;-40
2023/12/05 07:42:31;;;;;;;;;;;;;;;2.09;100.00;100118.63;5112966;27;19935;-39
2023/12/05 07:44:56;;;;;;;;;;;;;;;2.12;100.00;100123.63;5113941;27;19919;-40
2023/12/05 07:47:23;;;;;;;;;;;;;;;2.16;100.00;100127.69;5112690;28;19972;-42
2023/12/05 07:49:49;;;;;;;;;;;;;;;2.14;100.00;100130.47;5110335;27;19920;-43
2023/12/05 07:52:14;;;;;;;;;;;;;;;2.16;100.00;100135.66;5117769;28;19924;-40
2023/12/05 07:54:39;;;;;;;;;;;;;;;2.13;100.00;100143.88;5119676;27;19947;-41
2023/12/05 07:57:04;;;;;;;;;;;;;;;2.15;100.00;100147.22;5118822;28;20381;-40
2023/12/05 07:59:29;;;;;;;;;;;;;;;2.17;100.00;100153.25;5112014;27;19931;-40
2023/12/05 08:01:55;;;;;;;;;;;;;;;2.20;100.00;100156.44;5116870;28;19972;-40
2023/12/05 08:04:20;;;;;;;;;;;;;;;2.23;100.00;100160.63;5117672;27;19916;-41
2023/12/05 08:06:45;;;;;;;;;;;;;;;2.21;100.00;100159.91;5117051;27;19919;-38
2023/12/05 08:09:10;;;;;;;;;;;;;;;2.24;100.00;100167.63;5113428;27;19948;-40
2023/12/05 08:11:36;;;;;;;;;;;;;;;2.27;100.00;100167.31;5112260;28;19926;-40
2023/12/05 08:14:01;;;;;;;;;;;;;;;2.28;100.00;100179.59;5116366;27;19920;-39
2023/12/05 08:16:27;;;;;;;;;;;;;;;2.30;100.00;100182.97;5113804;28;19919;-39
2023/12/05 08:18:52;;;;;;;;;;;;;;;2.33;100.00;100187.97;5112366;27;20370;-39
2023/12/05 08:21:17;;;;;;;;;;;;;;;2.33;100.00;100192.44;5109320;28;20242;-40
2023/12/05 08:23:42;;;;;;;;;;;;;;;2.32;100.00;100180.16;5111170;28;20145;-41
2023/12/05 08:26:07;;;;;;;;;;;;;;;2.27;100.00;100182.41;5111596;28;19920;-39
2023/12/05 08:28:34;;;;;;;;;;;;;;;2.29;100.00;100186.59;5111454;28;19919;-38
2023/12/05 08:30:59;;;;;;;;;;;;;;;2.36;100.00;100185.03;5111225;28;19926;-40
2023/12/05 08:33:24;;;;;;;;;;;;;;;2.38;100.00;100188.38;5110487;27;19920;-40
2023/12/05 08:35:50;;;;;;;;;;;;;;;2.41;100.00;100193.41;5111037;28;20045;-39
2023/12/05 08:38:15;;;;;;;;;;;;;;;2.41;100.00;100196.06;5110958;27;19923;-40
2023/12/05 08:40:40;;;;;;;;;;;;;;;2.39;100.00;100199.84;5107757;28;19964;-40
2023/12/05 08:43:05;;;;;;;;;;;;;;;2.35;100.00;100204.59;5109866;28;19919;-40
2023/12/05 08:45:30;;;;;;;;;;;;;;;2.33;100.00;100203.91;5112610;28;19984;-40
2023/12/05 08:47:56;;;;;;;;;;;;;;;2.32;100.00;100204.91;5111766;28;20167;-40
2023/12/05 08:50:21;;;;;;;;;;;;;;;2.27;100.00;100217.78;5113173;28;20594;-39
2023/12/05 08:52:46;;;;;;;;;;;;;;;2.31;100.00;100218.31;5111717;27;20299;-40
2023/12/05 08:55:12;;;;;;;;;;;;;;;2.29;100.00;100223.78;5107034;28;19920;-39
2023/12/05 08:57:37;;;;;;;;;;;;;;;2.27;100.00;100215.13;5111006;28;20294;-41
2023/12/05 09:00:04;;;;;;;;;;;;;;;2.26;100.00;100228.53;5109455;28;19920;-40
2023/12/05 09:02:29;;;;;;;;;;;;;;;2.25;100.00;100226.84;5111957;28;19927;-39
2023/12/05 09:04:56;;;;;;;;;;;;;;;2.24;100.00;100220.72;5108837;27;19919;-40
2023/12/05 09:07:21;;;;;;;;;;;;;;;2.23;100.00;100228.81;5107111;28;20420;-38
2023/12/05 09:09:46;;;;;;;;;;;;;;;2.20;100.00;100227.28;5109451;28;19928;-38
2023/12/05 09:12:11;;;;;;;;;;;;;;;2.19;100.00;100222.97;5107292;28;19920;-38
2023/12/05 09:14:39;;;;;;;;;;;;;;;2.18;100.00;100226.56;5106350;28;20215;-39
2023/12/05 09:17:04;;;;;;;;;;;;;;;2.23;100.00;100228.81;5107775;28;20383;-39
2023/12/05 09:19:29;;;;;;;;;;;;;;;2.22;100.00;100237.78;5112507;27;20005;-40
2023/12/05 09:21:55;;;;;;;;;;;;;;;2.24;100.00;100241.09;5111420;27;19941;-40
2023/12/05 09:24:20;;;;;;;;;;;;;;;2.25;100.00;100246.28;5113077;28;19982;-40
2023/12/05 09:26:46;;;;;;;;;;;;;;;2.28;100.00;100242.50;5105938;28;19927;-39
2023/12/05 09:29:12;;;;;;;;;;;;;;;2.33;100.00;100248.22;5112208;27;19924;-39
2023/12/05 09:31:37;;;;;;;;;;;;;;;2.36;100.00;100245.28;5111491;28;19920;-40
2023/12/05 09:34:03;;;;;;;;;;;;;;;2.37;100.00;100255.75;5112707;27;19927;-39
2023/12/05 09:36:28;;;;;;;;;;;;;;;2.40;100.00;100260.78;5113598;28;20386;-39
2023/12/05 09:38:53;;;;;;;;;;;;;;;2.42;100.00;100264.13;5116061;28;19920;-39
2023/12/05 09:41:19;;;;;;;;;;;;;;;2.49;100.00;100271.53;5116936;28;19935;-40
2023/12/05 09:43:44;;;;;;;;;;;;;;;2.48;100.00;100269.84;5110126;28;20026;-40
2023/12/05 09:46:09;;;;;;;;;;;;;;;2.41;100.00;100275.72;5116935;27;19947;-39
2023/12/05 09:48:39;;;;;;;;;;;;;;;2.41;100.00;100280.19;5114986;27;19924;-40
2023/12/05 09:51:05;;;;;;;;;;;;;;;2.45;100.00;100286.91;5112521;28;19919;-36
2023/12/05 09:53:30;;;;;;;;;;;;;;;2.46;100.00;100291.25;5112006;28;19941;-40
2023/12/05 09:55:55;;;;;;;;;;;;;;;2.46;100.00;100288.59;5112059;28;20014;-40
2023/12/05 09:58:22;;;;;;;;;;;;;;;2.42;100.00;100298.66;5112608;28;20400;-40
2023/12/05 10:00:47;;;;;;;;;;;;;;;2.45;100.00;100294.03;5112825;28;19923;-39
2023/12/05 10:03:13;;;;;;;;;;;;;;;2.46;100.00;100301.03;5109777;28;20351;-39
2023/12/05 10:05:39;;;;;;;;;;;;;;;2.47;100.00;100302.69;5111492;28;19981;-38
2023/12/05 10:08:05;;;;;;;;;;;;;;;2.45;100.00;100299.34;5114767;28;19919;-39
2023/12/05 10:10:30;;;;;;;;;;;;;;;2.47;100.00;100302.69;5113127;28;20072;-39
2023/12/05 10:12:55;;;;;;;;;;;;;;;2.39;100.00;100308.72;5091125;28;19974;-46
2023/12/05 10:15:20;;;;;;;;;;;;;;;2.45;100.00;100307.31;5111266;28;20346;-39
2023/12/05 10:17:46;;;;;;;;;;;;;;;2.49;100.00;100314.03;5112872;28;19931;-39
2023/12/05 10:20:12;;;;;;;;;;;;;;;2.41;100.00;100312.91;5112527;28;19988;-38
2023/12/05 10:22:37;;;;;;;;;;;;;;;2.48;100.00;100313.19;5112725;28;19982;-40
2023/12/05 10:25:04;;;;;;;;;;;;;;;2.47;100.00;100315.97;5116589;28;20246;-39
2023/12/05 10:27:30;;;;;;;;;;;;;;;2.51;100.00;100318.22;5090037;28;20321;-37
2023/12/05 10:29:55;;;;;;;;;;;;;;;2.41;100.00;100323.53;5109525;28;19934;-39
2023/12/05 10:32:25;;;;;;;;;;;;;;;2.48;100.00;100320.31;5112861;28;20278;-40
2023/12/05 10:34:51;;;;;;;;;;;;;;;2.55;100.00;100332.88;5117788;28;19988;-39
2023/12/05 10:37:23;;;;;;;;;;;;;;;2.56;100.00;100331.91;5118643;28;19922;-40
2023/12/05 10:39:52;;;;;;;;;;;;;;;2.56;100.00;100325.75;5112815;28;19919;-39
2023/12/05 10:42:19;;;;;;;;;;;;;;;2.55;100.00;100321.41;5133385;28;19918;-39
2023/12/05 10:44:44;;;;;;;;;;;;;;;2.51;100.00;100338.63;5120085;27;19920;-39
2023/12/05 10:47:10;;;;;;;;;;;;;;;2.61;100.00;100339.44;5121806;28;19916;-38
2023/12/05 10:49:36;;;;;;;;;;;;;;;2.62;100.00;100346.44;5125971;28;19920;-40
2023/12/05 10:52:02;;;;;;;;;;;;;;;2.64;100.00;100349.78;5123182;28;19916;-39
2023/12/05 10:54:27;;;;;;;;;;;;;;;2.67;100.00;100351.31;5121125;28;19930;-40
2023/12/05 10:56:57;;;;;;;;;;;;;;;2.65;100.00;100348.78;5116593;28;19919;-40
2023/12/05 10:59:22;;;;;;;;;;;;;;;2.60;100.00;100351.03;5115980;28;19920;-39
2023/12/05 11:01:48;;;;;;;;;;;;;;;2.62;100.00;100351.75;5114165;28;19927;-40
2023/12/05 11:04:13;;;;;;;;;;;;;;;2.63;100.00;100351.63;5115907;27;20006;-39
2023/12/05 11:06:38;;;;;;;;;;;;;;;2.58;100.00;100350.34;5115634;28;19920;-40
2023/12/05 11:09:04;;;;;;;;;;;;;;;2.62;100.00;100351.75;5114530;27;20010;-38
2023/12/05 11:11:29;;;;;;;;;;;;;;;2.64;100.00;100353.28;5114987;28;19949;-38
2023/12/05 11:13:55;;;;;;;;;;;;;;;2.65;100.00;100343.47;5111463;27;20016;-39
2023/12/05 11:16:22;;;;;;;;;;;;;;;2.69;100.00;100347.53;5083051;28;19927;-39
2023/12/05 11:18:47;;;;;;;;;;;;;;;2.71;100.00;100345.56;5102938;27;19920;-40
2023/12/05 11:21:16;;;;;;;;;;;;;;;2.76;100.00;100338.00;5115012;28;20010;-39
2023/12/05 11:23:44;;;;;;;;;;;;;;;2.75;100.00;100341.66;5113738;28;20342;-39
2023/12/05 11:26:22;;;;;;;;;;;;;;;2.75;100.00;100335.50;5116734;28;20357;-39
2023/12/05 11:29:07;;;;;;;;;;;;;;;2.76;100.00;100337.16;5111228;28;19924;-39
2023/12/05 11:31:52;;;;;;;;;;;;;;;2.74;100.00;100344.44;5111791;28;19927;-40
2023/12/05 11:34:24;;;;;;;;;;;;;;;2.76;100.00;100342.47;5105070;28;19923;-40
2023/12/05 11:36:49;;;;;;;;;;;;;;;2.81;100.00;100340.22;5118125;28;19999;-39
2023/12/05 11:39:14;;;;;;;;;;;;;;;2.86;100.00;100341.47;5121188;28;19951;-39
2023/12/05 11:41:39;;;;;;;;;;;;;;;2.88;100.00;100340.50;5121085;28;19926;-38
2023/12/05 11:44:13;;;;;;;;;;;;;;;2.83;100.00;100341.75;5122203;28;19942;-39
2023/12/05 11:46:45;;;;;;;;;;;;;;;2.91;100.00;100350.84;5122453;28;19916;-39
2023/12/05 11:49:10;;;;;;;;;;;;;;;2.97;100.00;100352.91;5119188;27;19945;-41
2023/12/05 11:51:36;;;;;;;;;;;;;;;2.98;100.00;100346.63;5117109;28;20246;-39
2023/12/05 11:54:01;;;;;;;;;;;;;;;2.97;100.00;100353.75;5116203;28;20367;-38
2023/12/05 11:56:30;;;;;;;;;;;;;;;2.99;100.00;100348.28;5116048;28;19916;-38
2023/12/05 11:59:13;;;;;;;;;;;;;;;3.02;100.00;100359.47;5118115;27;20316;-39
2023/12/05 12:01:38;;;;;;;;;;;;;;;3.08;100.00;100355.38;5122965;27;19927;-39
2023/12/05 12:04:16;;;;;;;;;;;;;;;3.07;100.00;100365.19;5107857;28;19919;-39
2023/12/05 12:06:41;;;;;;;;;;;;;;;3.02;100.00;100367.44;5114947;28;20386;-39
2023/12/05 12:09:07;;;;;;;;;;;;;;;3.03;100.00;100365.66;5099521;28;19920;-39
2023/12/05 12:11:33;;;;;;;;;;;;;;;3.00;100.00;100371.22;5112081;28;19919;-39
2023/12/05 12:13:58;;;;;;;;;;;;;;;3.04;100.00;100375.28;5113786;27;19926;-39
2023/12/05 12:16:24;;;;;;;;;;;;;;;3.01;100.00;100380.91;5113676;28;19916;-38
2023/12/05 12:18:49;;;;;;;;;;;;;;;3.00;100.00;100381.84;5114101;28;19920;-39
2023/12/05 12:21:15;;;;;;;;;;;;;;;3.01;100.00;100391.53;5113188;28;19953;-38
2023/12/05 12:23:40;;;;;;;;;;;;;;;2.94;100.00;100398.41;5114484;27;19986;-38
2023/12/05 12:26:09;;;;;;;;;;;;;;;3.03;100.00;100397.53;5115130;28;19919;-38
2023/12/05 12:28:34;;;;;;;;;;;;;;;3.07;100.00;100406.91;5114548;28;19930;-39
2023/12/05 12:30:59;;;;;;;;;;;;;;;3.10;100.00;100403.94;5114775;28;20011;-39
2023/12/05 12:33:46;;;;;;;;;;;;;;;3.11;100.00;100397.66;5126704;27;19919;-40